createdAt,value
2018-03-23T00:00:12.499Z,10.58
2018-03-23T00:01:12.964Z,10.60
2018-03-23T00:02:13.433Z,10.57
2018-03-23T00:03:13.903Z,10.55
2018-03-23T00:04:14.380Z,10.54
2018-03-23T00:05:14.841Z,10.54
2018-03-23T00:06:15.313Z,10.54
2018-03-23T00:07:15.782Z,10.51
2018-03-23T00:08:16.252Z,10.51
2018-03-23T00:09:16.721Z,10.52
2018-03-23T00:10:17.199Z,10.50
2018-03-23T00:11:17.660Z,10.49
2018-03-23T00:12:18.132Z,10.49
2018-03-23T00:13:18.600Z,10.48
2018-03-23T00:14:19.069Z,10.49
2018-03-23T00:15:19.545Z,10.48
2018-03-23T00:16:20.010Z,10.49
2018-03-23T00:17:20.478Z,10.48
2018-03-23T00:18:20.950Z,10.48
2018-03-23T00:19:21.422Z,10.47
2018-03-23T00:20:21.888Z,10.47
2018-03-23T00:21:22.357Z,10.46
2018-03-23T00:22:22.826Z,10.45
2018-03-23T00:23:23.296Z,10.45
2018-03-23T00:24:23.766Z,10.45
2018-03-23T00:25:24.236Z,10.46
2018-03-23T00:26:24.704Z,10.46
2018-03-23T00:27:25.181Z,10.44
2018-03-23T00:28:25.645Z,10.45
2018-03-23T00:29:26.113Z,10.43
2018-03-23T00:30:26.587Z,10.41
2018-03-23T00:31:27.053Z,10.41
2018-03-23T00:32:27.523Z,10.38
2018-03-23T00:33:27.992Z,10.36
2018-03-23T00:34:28.463Z,10.36
2018-03-23T00:35:28.931Z,10.35
2018-03-23T00:36:29.403Z,10.34
2018-03-23T00:37:29.870Z,10.33
2018-03-23T00:38:30.339Z,10.36
2018-03-23T00:39:30.809Z,10.36
2018-03-23T00:40:31.279Z,10.34
2018-03-23T00:41:31.747Z,10.34
2018-03-23T00:42:32.217Z,10.34
2018-03-23T00:43:32.687Z,10.36
2018-03-23T00:44:33.158Z,10.33
2018-03-23T00:45:33.625Z,10.33
2018-03-23T00:46:34.097Z,10.33
2018-03-23T00:47:34.566Z,10.32
2018-03-23T00:48:35.040Z,10.32
2018-03-23T00:49:35.504Z,10.34
2018-03-23T00:50:35.973Z,10.32
2018-03-23T00:51:36.442Z,10.33
2018-03-23T00:52:36.913Z,10.34
2018-03-23T00:53:37.381Z,10.33
2018-03-23T00:54:37.851Z,10.32
2018-03-23T00:55:38.321Z,10.31
2018-03-23T00:56:38.790Z,10.30
2018-03-23T00:57:39.261Z,10.30
2018-03-23T00:58:39.728Z,10.29
2018-03-23T00:59:40.201Z,10.30
2018-03-23T01:00:40.667Z,10.31
2018-03-23T01:01:41.136Z,10.29
2018-03-23T01:02:41.608Z,10.30
2018-03-23T01:03:42.078Z,10.27
2018-03-23T01:04:42.545Z,10.27
2018-03-23T01:05:43.014Z,10.28
2018-03-23T01:06:43.482Z,10.27
2018-03-23T01:07:43.953Z,10.25
2018-03-23T01:08:44.423Z,10.26
2018-03-23T01:09:44.891Z,10.26
2018-03-23T01:10:45.361Z,10.25
2018-03-23T01:11:45.831Z,10.24
2018-03-23T01:12:46.300Z,10.22
2018-03-23T01:13:46.768Z,10.23
2018-03-23T01:14:47.238Z,10.22
2018-03-23T01:15:47.762Z,10.25
2018-03-23T01:16:48.179Z,10.23
2018-03-23T01:17:48.645Z,10.24
2018-03-23T01:18:49.116Z,10.22
2018-03-23T01:19:49.584Z,10.20
2018-03-23T01:20:50.054Z,10.20
2018-03-23T01:21:50.523Z,10.19
2018-03-23T01:22:50.992Z,10.19
2018-03-23T01:23:51.461Z,10.19
2018-03-23T01:24:51.930Z,10.18
2018-03-23T01:25:52.399Z,10.19
2018-03-23T01:26:52.869Z,10.17
2018-03-23T01:27:53.338Z,10.17
2018-03-23T01:28:53.808Z,10.18
2018-03-23T01:29:54.277Z,10.18
2018-03-23T01:30:54.796Z,10.21
2018-03-23T01:31:55.215Z,10.19
2018-03-23T01:32:55.684Z,10.19
2018-03-23T01:33:56.154Z,10.17
2018-03-23T01:34:56.623Z,10.15
2018-03-23T01:35:57.092Z,10.18
2018-03-23T01:36:57.561Z,10.16
2018-03-23T01:37:58.029Z,10.14
2018-03-23T01:38:58.499Z,10.13
2018-03-23T01:39:58.968Z,10.12
2018-03-23T01:40:59.438Z,10.12
2018-03-23T01:41:59.906Z,10.11
2018-03-23T01:43:00.376Z,10.11
2018-03-23T01:44:00.845Z,10.10
2018-03-23T01:45:01.314Z,10.11
2018-03-23T01:46:01.784Z,10.09
2018-03-23T01:47:02.252Z,10.12
2018-03-23T01:48:02.759Z,10.08
2018-03-23T01:49:03.192Z,10.06
2018-03-23T01:50:03.661Z,10.05
2018-03-23T01:51:04.129Z,10.06
2018-03-23T01:52:04.597Z,10.04
2018-03-23T01:53:05.068Z,10.05
2018-03-23T01:54:05.535Z,10.03
2018-03-23T01:55:06.006Z,10.02
2018-03-23T01:56:06.474Z,10.02
2018-03-23T01:57:07.284Z,10.00
2018-03-23T01:58:07.412Z,10.00
2018-03-23T01:59:07.884Z,10.01
2018-03-23T02:00:08.351Z,10.00
2018-03-23T02:01:08.820Z,10.02
2018-03-23T02:02:09.292Z,10.02
2018-03-23T02:03:09.758Z,10.04
2018-03-23T02:04:10.227Z,10.02
2018-03-23T02:05:10.700Z,10.04
2018-03-23T02:06:11.164Z,10.03
2018-03-23T02:07:11.635Z,10.02
2018-03-23T02:08:12.104Z,10.03
2018-03-23T02:09:12.572Z,10.00
2018-03-23T02:10:13.041Z,10.00
2018-03-23T02:11:13.510Z,9.99
2018-03-23T02:12:13.979Z,10.00
2018-03-23T02:13:14.448Z,9.99
2018-03-23T02:14:14.917Z,9.97
2018-03-23T02:15:15.423Z,9.96
2018-03-23T02:16:15.855Z,9.97
2018-03-23T02:17:16.324Z,9.95
2018-03-23T02:18:16.794Z,9.97
2018-03-23T02:19:17.262Z,9.96
2018-03-23T02:20:17.733Z,9.95
2018-03-23T02:21:18.204Z,9.95
2018-03-23T02:22:18.668Z,9.94
2018-03-23T02:23:19.140Z,9.91
2018-03-23T02:24:19.606Z,9.92
2018-03-23T02:25:20.077Z,9.91
2018-03-23T02:26:20.546Z,9.93
2018-03-23T02:27:21.019Z,9.93
2018-03-23T02:28:21.481Z,9.95
2018-03-23T02:29:21.952Z,9.97
2018-03-23T02:30:22.420Z,9.96
2018-03-23T02:31:22.890Z,9.95
2018-03-23T02:32:23.360Z,9.95
2018-03-23T02:33:23.828Z,9.95
2018-03-23T02:34:24.305Z,9.93
2018-03-23T02:35:24.763Z,9.95
2018-03-23T02:36:25.285Z,9.94
2018-03-23T02:37:25.703Z,9.93
2018-03-23T02:38:26.174Z,9.93
2018-03-23T02:39:26.643Z,9.94
2018-03-23T02:40:27.117Z,9.91
2018-03-23T02:41:27.577Z,9.92
2018-03-23T02:42:28.085Z,9.92
2018-03-23T02:43:28.516Z,9.92
2018-03-23T02:44:28.986Z,9.92
2018-03-23T02:45:29.452Z,9.90
2018-03-23T02:46:29.927Z,9.90
2018-03-23T02:47:30.392Z,9.92
2018-03-23T02:48:30.860Z,9.92
2018-03-23T02:49:31.331Z,9.91
2018-03-23T02:50:31.799Z,9.91
2018-03-23T02:51:32.268Z,9.91
2018-03-23T02:52:32.739Z,9.89
2018-03-23T02:53:33.209Z,9.88
2018-03-23T02:54:33.675Z,9.89
2018-03-23T02:55:34.141Z,9.89
2018-03-23T02:56:34.612Z,9.88
2018-03-23T02:57:35.080Z,9.87
2018-03-23T02:58:35.548Z,9.87
2018-03-23T02:59:36.017Z,9.90
2018-03-23T03:00:36.484Z,9.89
2018-03-23T03:01:36.957Z,9.88
2018-03-23T03:02:37.424Z,9.88
2018-03-23T03:03:37.898Z,9.89
2018-03-23T03:04:38.361Z,9.88
2018-03-23T03:05:38.835Z,9.89
2018-03-23T03:06:39.354Z,9.88
2018-03-23T03:07:39.811Z,9.88
2018-03-23T03:08:40.241Z,9.87
2018-03-23T03:09:40.710Z,9.88
2018-03-23T03:10:41.178Z,9.89
2018-03-23T03:11:41.649Z,9.90
2018-03-23T03:13:42.585Z,9.89
2018-03-23T03:14:43.056Z,9.90
2018-03-23T03:15:43.518Z,9.90
2018-03-23T03:16:44.042Z,9.90
2018-03-23T03:17:44.460Z,9.87
2018-03-23T03:18:44.931Z,9.87
2018-03-23T03:19:45.400Z,9.87
2018-03-23T03:20:45.867Z,9.86
2018-03-23T03:21:58.474Z,9.86
2018-03-23T03:22:46.804Z,9.86
2018-03-23T03:23:47.274Z,9.87
2018-03-23T03:24:47.741Z,9.86
2018-03-23T03:25:48.212Z,9.85
2018-03-23T03:26:48.673Z,9.86
2018-03-23T03:28:49.619Z,9.87
2018-03-23T03:30:50.556Z,9.90
2018-03-23T03:32:51.492Z,9.91
2018-03-23T03:33:51.960Z,9.91
2018-03-23T03:34:52.429Z,9.90
2018-03-23T03:35:52.898Z,9.89
2018-03-23T03:36:53.367Z,9.88
2018-03-23T03:37:53.886Z,9.88
2018-03-23T03:38:54.305Z,9.89
2018-03-23T03:39:54.769Z,9.90
2018-03-23T03:40:55.243Z,9.87
2018-03-23T03:41:55.711Z,9.88
2018-03-23T03:44:57.117Z,9.89
2018-03-23T03:45:57.593Z,9.89
2018-03-23T03:46:58.052Z,9.90
2018-03-23T03:47:58.524Z,9.90
2018-03-23T03:49:10.527Z,9.90
2018-03-23T03:49:59.462Z,9.89
2018-03-23T03:50:59.930Z,9.89
2018-03-23T03:52:00.399Z,9.88
2018-03-23T03:53:00.868Z,9.88
2018-03-23T03:54:01.389Z,9.88
2018-03-23T03:55:01.809Z,9.88
2018-03-23T03:56:02.268Z,9.87
2018-03-23T03:57:02.737Z,9.88
2018-03-23T03:58:03.208Z,9.91
2018-03-23T03:59:03.675Z,9.89
2018-03-23T04:00:04.188Z,9.87
2018-03-23T04:01:04.613Z,9.86
2018-03-23T04:02:05.082Z,9.87
2018-03-23T04:03:05.556Z,9.87
2018-03-23T04:04:06.020Z,9.87
2018-03-23T04:05:06.494Z,9.86
2018-03-23T04:06:06.962Z,9.87
2018-03-23T04:07:07.431Z,9.84
2018-03-23T04:08:07.899Z,9.82
2018-03-23T04:10:08.833Z,9.82
2018-03-23T04:11:09.305Z,9.82
2018-03-23T04:12:09.774Z,9.82
2018-03-23T04:13:10.243Z,9.84
2018-03-23T04:14:10.715Z,9.84
2018-03-23T04:15:11.179Z,9.84
2018-03-23T04:16:11.649Z,9.85
2018-03-23T04:17:12.114Z,9.84
2018-03-23T04:18:12.590Z,9.86
2018-03-23T04:19:13.055Z,9.83
2018-03-23T04:20:13.526Z,9.84
2018-03-23T04:21:13.994Z,9.82
2018-03-23T04:22:14.464Z,9.83
2018-03-23T04:23:14.925Z,9.83
2018-03-23T04:24:15.402Z,9.82
2018-03-23T04:25:15.868Z,9.81
2018-03-23T04:27:16.806Z,9.82
2018-03-23T04:28:17.278Z,9.79
2018-03-23T04:30:18.264Z,9.79
2018-03-23T04:31:18.680Z,9.78
2018-03-23T04:32:19.150Z,9.77
2018-03-23T04:33:19.619Z,9.76
2018-03-23T04:34:20.082Z,9.75
2018-03-23T04:35:20.554Z,9.75
2018-03-23T04:36:21.023Z,9.75
2018-03-23T04:37:21.492Z,9.74
2018-03-23T04:38:21.961Z,9.74
2018-03-23T04:39:22.430Z,9.73
2018-03-23T04:40:22.898Z,9.71
2018-03-23T04:41:23.366Z,9.73
2018-03-23T04:42:23.832Z,9.72
2018-03-23T04:43:24.304Z,9.72
2018-03-23T04:44:24.772Z,9.71
2018-03-23T04:45:25.242Z,9.71
2018-03-23T04:47:26.172Z,9.71
2018-03-23T04:48:26.648Z,9.70
2018-03-23T04:49:27.115Z,9.68
2018-03-23T04:50:27.585Z,9.67
2018-03-23T04:51:28.052Z,9.68
2018-03-23T04:52:28.522Z,9.68
2018-03-23T04:53:28.990Z,9.68
2018-03-23T04:54:29.462Z,9.67
2018-03-23T04:55:29.928Z,9.67
2018-03-23T04:56:30.397Z,9.69
2018-03-23T04:57:30.865Z,9.71
2018-03-23T04:58:31.337Z,9.68
2018-03-23T04:59:31.797Z,9.68
2018-03-23T05:00:43.601Z,9.68
2018-03-23T05:01:32.742Z,9.68
2018-03-23T05:02:33.208Z,9.70
2018-03-23T05:03:33.676Z,9.66
2018-03-23T05:04:34.485Z,9.66
2018-03-23T05:05:34.664Z,9.67
2018-03-23T05:06:35.077Z,9.68
2018-03-23T05:07:35.549Z,9.68
2018-03-23T05:09:36.488Z,9.68
2018-03-23T05:10:37.008Z,9.70
2018-03-23T05:11:37.424Z,9.70
2018-03-23T05:12:37.894Z,9.68
2018-03-23T05:13:38.361Z,9.68
2018-03-23T05:14:38.831Z,9.65
2018-03-23T05:15:39.293Z,9.66
2018-03-23T05:16:39.775Z,9.66
2018-03-23T05:17:40.236Z,9.65
2018-03-23T05:18:40.710Z,9.64
2018-03-23T05:19:41.172Z,9.69
2018-03-23T05:21:42.109Z,9.67
2018-03-23T05:22:42.578Z,9.66
2018-03-23T05:24:43.543Z,9.71
2018-03-23T05:25:55.614Z,9.70
2018-03-23T05:26:44.455Z,9.68
2018-03-23T05:27:44.916Z,9.70
2018-03-23T05:28:45.390Z,9.70
2018-03-23T05:29:45.853Z,9.69
2018-03-23T05:30:57.655Z,9.70
2018-03-23T05:31:46.793Z,9.72
2018-03-23T05:32:47.267Z,9.71
2018-03-23T05:33:47.734Z,9.71
2018-03-23T05:34:48.201Z,9.71
2018-03-23T05:35:48.671Z,9.69
2018-03-23T05:36:49.137Z,9.68
2018-03-23T05:37:49.633Z,9.67
2018-03-23T05:38:50.074Z,9.69
2018-03-23T05:39:50.540Z,9.68
2018-03-23T05:40:51.061Z,9.67
2018-03-23T05:41:51.480Z,9.65
2018-03-23T05:42:51.944Z,9.68
2018-03-23T05:43:52.416Z,9.67
2018-03-23T05:44:52.885Z,9.68
2018-03-23T05:45:53.354Z,9.69
2018-03-23T05:46:53.818Z,9.66
2018-03-23T05:47:54.291Z,9.68
2018-03-23T05:48:54.796Z,9.68
2018-03-23T05:49:55.263Z,9.66
2018-03-23T05:50:55.695Z,9.70
2018-03-23T05:52:56.631Z,9.71
2018-03-23T05:53:57.096Z,9.71
2018-03-23T05:54:57.571Z,9.70
2018-03-23T05:55:58.443Z,9.71
2018-03-23T06:24:08.086Z,9.87
2018-03-23T06:25:10.192Z,9.88
2018-03-23T06:26:08.691Z,9.90
2018-03-23T06:37:27.936Z,9.94
2018-03-23T06:49:35.516Z,10.12
2018-03-23T06:56:35.634Z,10.19
2018-03-23T07:02:39.863Z,10.34
2018-03-23T07:03:38.916Z,10.35
2018-03-23T07:05:39.854Z,10.40
2018-03-23T07:09:41.933Z,10.44
2018-03-23T07:10:42.194Z,10.46
2018-03-23T07:11:42.468Z,10.49
2018-03-23T07:12:42.935Z,10.52
2018-03-23T07:13:43.454Z,10.54
2018-03-23T07:14:43.873Z,10.55
2018-03-23T07:15:44.341Z,10.59
2018-03-23T07:16:44.813Z,10.61
2018-03-23T07:17:45.281Z,10.63
2018-03-23T07:18:45.798Z,10.63
2018-03-23T07:19:46.219Z,10.66
2018-03-23T07:20:46.690Z,10.68
2018-03-23T07:21:47.158Z,10.71
2018-03-23T07:23:48.096Z,10.75
2018-03-23T07:24:48.567Z,10.79
2018-03-23T07:25:49.036Z,10.79
2018-03-23T07:26:49.508Z,10.79
2018-03-23T07:27:49.973Z,10.82
2018-03-23T07:28:50.492Z,10.85
2018-03-23T07:29:50.914Z,10.87
2018-03-23T07:30:51.377Z,10.91
2018-03-23T07:31:51.851Z,10.90
2018-03-23T07:32:52.320Z,10.94
2018-03-23T07:34:53.260Z,10.98
2018-03-23T07:35:53.730Z,10.97
2018-03-23T07:36:54.202Z,11.00
2018-03-23T07:37:54.676Z,11.02
2018-03-23T07:38:55.134Z,11.08
2018-03-23T07:39:55.657Z,11.08
2018-03-23T07:41:56.553Z,11.11
2018-03-23T07:43:57.691Z,11.14
2018-03-23T07:44:57.958Z,11.16
2018-03-23T07:45:58.426Z,11.18
2018-03-23T07:46:58.903Z,11.21
2018-03-23T07:47:59.366Z,11.21
2018-03-23T07:51:01.183Z,11.25
2018-03-23T07:55:04.883Z,11.30
2018-03-23T08:03:25.822Z,11.48
2018-03-23T10:04:59.211Z,15.03
2018-03-23T10:29:34.191Z,15.50
2018-03-23T10:31:35.889Z,15.49
2018-03-23T10:43:59.843Z,14.33
2018-03-23T10:46:55.134Z,13.86
2018-03-23T10:54:12.298Z,12.74
2018-03-23T11:08:05.821Z,12.84
2018-03-23T11:09:06.087Z,12.93
2018-03-23T11:12:08.105Z,13.15
2018-03-23T11:14:08.441Z,13.30
2018-03-23T11:16:09.379Z,13.47
2018-03-23T11:18:10.731Z,13.66
2018-03-23T11:24:30.528Z,14.22
2018-03-23T12:44:38.424Z,13.90
2018-03-23T13:07:41.943Z,15.66
2018-03-23T13:10:49.434Z,15.81
2018-03-23T13:25:53.105Z,16.29
2018-03-23T13:33:58.162Z,15.31
2018-03-23T13:36:55.101Z,14.86
2018-03-23T13:38:59.446Z,14.53
2018-03-23T13:40:58.339Z,14.22
2018-03-23T13:53:10.540Z,13.12
2018-03-23T13:54:16.763Z,13.15
2018-03-23T13:57:19.763Z,13.35
2018-03-23T14:00:07.370Z,13.61
2018-03-23T14:02:07.288Z,13.84
2018-03-23T14:03:08.789Z,13.96
2018-03-23T14:05:09.912Z,14.18
2018-03-23T14:07:09.998Z,14.40
2018-03-23T14:08:11.083Z,14.51
2018-03-23T14:09:10.404Z,14.61
2018-03-23T14:11:11.183Z,14.80
2018-03-23T14:14:12.360Z,15.09
2018-03-23T14:17:14.114Z,15.37
2018-03-23T14:18:14.586Z,15.45
2018-03-23T14:22:28.125Z,15.75
2018-03-23T14:25:17.763Z,15.95
2018-03-23T14:26:18.039Z,16.01
2018-03-23T14:27:18.760Z,16.06
2018-03-23T14:29:19.654Z,16.16
2018-03-23T14:31:21.595Z,16.25
2018-03-23T14:32:33.327Z,16.29
2018-03-23T14:35:22.301Z,16.41
2018-03-23T14:36:22.978Z,16.46
2018-03-23T14:37:35.140Z,16.51
2018-03-23T14:38:23.723Z,16.55
2018-03-23T14:39:24.603Z,16.57
2018-03-23T14:41:25.581Z,16.60
2018-03-23T14:43:26.099Z,16.50
2018-03-23T14:45:27.252Z,16.33
2018-03-23T14:46:27.521Z,16.22
2018-03-23T14:47:28.205Z,16.09
2018-03-23T14:48:28.679Z,15.96
2018-03-23T14:49:28.951Z,15.82
2018-03-23T14:51:29.901Z,15.52
2018-03-23T14:52:30.828Z,15.39
2018-03-23T14:53:30.854Z,15.22
2018-03-23T14:54:32.515Z,15.06
2018-03-23T14:56:32.271Z,14.76
2018-03-23T14:58:33.417Z,14.44
2018-03-23T14:59:33.694Z,14.29
2018-03-23T15:01:34.846Z,14.00
2018-03-23T15:02:35.362Z,13.86
2018-03-23T15:03:35.583Z,13.74
2018-03-23T15:07:38.671Z,13.35
2018-03-23T15:08:38.152Z,13.31
2018-03-23T15:10:39.144Z,13.29
2018-03-23T15:12:39.834Z,13.35
2018-03-23T15:14:40.770Z,13.49
2018-03-23T15:15:41.449Z,13.58
2018-03-23T15:16:41.718Z,13.68
2018-03-23T15:20:43.602Z,14.10
2018-03-23T15:21:44.110Z,14.19
2018-03-23T15:22:44.543Z,14.29
2018-03-23T15:23:45.017Z,14.40
2018-03-23T15:25:45.959Z,14.59
2018-03-23T15:26:46.636Z,14.67
2018-03-23T15:27:46.901Z,14.77
2018-03-23T15:28:47.576Z,14.86
2018-03-23T15:29:48.099Z,14.94
2018-03-23T15:30:48.513Z,15.05
2018-03-23T15:31:48.790Z,15.14
2018-03-23T15:33:49.734Z,15.33
2018-03-23T15:34:50.205Z,15.41
2018-03-23T15:35:50.880Z,15.48
2018-03-23T15:36:51.152Z,15.57
2018-03-23T15:37:51.623Z,15.63
2018-03-23T15:38:52.092Z,15.70
2018-03-23T15:40:53.244Z,15.83
2018-03-23T15:41:53.514Z,15.88
2018-03-23T15:42:53.983Z,15.95
2018-03-23T15:43:54.463Z,15.99
2018-03-23T15:46:55.881Z,16.13
2018-03-23T15:47:56.355Z,16.17
2018-03-23T15:48:56.826Z,16.23
2018-03-23T15:49:57.302Z,16.27
2018-03-23T15:50:57.778Z,16.31
2018-03-23T15:51:58.451Z,16.36
2018-03-23T15:52:58.931Z,16.41
2018-03-23T15:53:59.194Z,16.45
2018-03-23T15:54:59.673Z,16.48
2018-03-23T15:56:00.147Z,16.51
2018-03-23T15:57:00.623Z,16.55
2018-03-23T15:58:01.094Z,16.57
2018-03-23T15:59:01.767Z,16.61
2018-03-23T16:00:02.040Z,16.63
2018-03-23T16:01:02.553Z,16.62
2018-03-23T16:02:03.257Z,16.60
2018-03-23T16:03:03.869Z,16.55
2018-03-23T16:04:03.942Z,16.47
2018-03-23T16:05:04.414Z,16.39
2018-03-23T16:06:04.889Z,16.28
2018-03-23T16:07:05.565Z,16.15
2018-03-23T16:08:05.838Z,16.01
2018-03-23T16:09:06.313Z,15.85
2018-03-23T16:10:06.990Z,15.68
2018-03-23T16:11:07.261Z,15.50
2018-03-23T16:12:07.741Z,15.29
2018-03-23T16:13:08.284Z,15.10
2018-03-23T16:14:08.693Z,14.90
2018-03-23T16:15:09.360Z,14.71
2018-03-23T16:16:09.632Z,14.51
2018-03-23T16:17:10.111Z,14.33
2018-03-23T16:18:10.588Z,14.14
2018-03-23T16:19:11.054Z,13.94
2018-03-23T16:20:11.532Z,13.76
2018-03-23T16:21:12.053Z,13.57
2018-03-23T16:22:12.476Z,13.40
2018-03-23T16:23:12.950Z,13.25
2018-03-23T16:24:13.419Z,13.10
2018-03-23T16:25:13.886Z,13.00
2018-03-23T16:26:14.616Z,12.90
2018-03-23T16:27:14.830Z,12.83
2018-03-23T16:28:15.306Z,12.76
2018-03-23T16:29:15.770Z,12.72
2018-03-23T16:30:16.244Z,12.69
2018-03-23T16:31:16.718Z,12.70
2018-03-23T16:32:17.185Z,12.73
2018-03-23T16:33:17.658Z,12.76
2018-03-23T16:34:18.131Z,12.81
2018-03-23T16:35:18.599Z,12.87
2018-03-23T16:36:31.213Z,12.94
2018-03-23T16:37:19.541Z,13.02
2018-03-23T16:38:20.007Z,13.10
2018-03-23T16:39:20.475Z,13.20
2018-03-23T16:40:20.949Z,13.29
2018-03-23T16:41:21.672Z,13.37
2018-03-23T16:42:21.890Z,13.45
2018-03-23T16:43:22.358Z,13.54
2018-03-23T16:45:23.309Z,13.70
2018-03-23T16:46:23.828Z,13.77
2018-03-23T16:47:24.248Z,13.84
2018-03-23T16:48:24.922Z,13.93
2018-03-23T16:49:25.189Z,14.00
2018-03-23T16:50:25.661Z,14.07
2018-03-23T16:51:26.183Z,14.15
2018-03-23T16:52:26.604Z,14.20
2018-03-23T16:53:27.075Z,14.28
2018-03-23T16:54:27.541Z,14.32
2018-03-23T16:55:28.020Z,14.39
2018-03-23T16:56:28.492Z,14.44
2018-03-23T16:58:29.434Z,14.55
2018-03-23T16:59:29.905Z,14.60
2018-03-23T17:00:30.579Z,14.65
2018-03-23T17:01:30.847Z,14.71
2018-03-23T17:02:31.322Z,14.74
2018-03-23T17:04:32.268Z,14.79
2018-03-23T17:05:32.733Z,14.83
2018-03-23T17:06:33.212Z,14.86
2018-03-23T17:07:33.688Z,14.90
2018-03-23T17:08:34.156Z,14.94
2018-03-23T17:09:34.630Z,15.00
2018-03-23T17:10:35.103Z,15.03
2018-03-23T17:11:35.575Z,15.02
2018-03-23T17:12:36.064Z,15.03
2018-03-23T17:13:36.522Z,15.04
2018-03-23T17:14:36.995Z,15.06
2018-03-23T17:16:37.940Z,15.08
2018-03-23T17:17:38.414Z,15.11
2018-03-23T17:18:38.890Z,15.12
2018-03-23T17:19:39.369Z,15.13
2018-03-23T17:20:39.836Z,15.15
2018-03-23T17:21:40.312Z,15.16
2018-03-23T17:22:40.783Z,15.16
2018-03-23T17:23:41.254Z,15.16
2018-03-23T17:24:41.731Z,15.16
2018-03-23T17:25:42.203Z,15.19
2018-03-23T17:26:42.678Z,15.18
2018-03-23T17:27:43.149Z,15.18
2018-03-23T17:28:43.624Z,15.20
2018-03-23T17:29:44.100Z,15.19
2018-03-23T17:30:44.575Z,15.17
2018-03-23T17:31:45.100Z,15.18
2018-03-23T17:32:45.526Z,15.17
2018-03-23T17:33:45.998Z,15.17
2018-03-23T17:34:46.467Z,15.17
2018-03-23T17:38:48.364Z,15.17
2018-03-23T17:39:49.043Z,15.17
2018-03-23T17:40:49.315Z,15.17
2018-03-23T17:41:49.792Z,15.15
2018-03-23T17:42:50.264Z,15.16
2018-03-23T17:43:50.736Z,15.15
2018-03-23T17:44:51.214Z,15.14
2018-03-23T17:45:51.682Z,15.13
2018-03-23T17:46:52.212Z,15.15
2018-03-23T17:47:52.688Z,15.14
2018-03-23T17:48:53.167Z,15.13
2018-03-23T17:49:53.586Z,15.12
2018-03-23T17:50:54.058Z,15.14
2018-03-23T17:51:54.583Z,15.12
2018-03-23T17:54:55.956Z,15.05
2018-03-23T17:55:56.430Z,15.04
2018-03-23T17:56:56.900Z,15.03
2018-03-23T17:57:57.379Z,15.02
2018-03-23T17:58:57.857Z,14.99
2018-03-23T17:59:58.329Z,14.96
2018-03-23T18:00:58.805Z,14.95
2018-03-23T18:01:59.329Z,14.95
2018-03-23T18:02:59.752Z,14.93
2018-03-23T18:04:00.225Z,14.94
2018-03-23T18:05:00.704Z,14.93
2018-03-23T18:06:01.176Z,14.91
2018-03-23T18:07:01.652Z,14.90
2018-03-23T18:08:02.120Z,14.89
2018-03-23T18:09:02.599Z,14.88
2018-03-23T18:10:03.075Z,14.87
2018-03-23T18:11:03.550Z,14.85
2018-03-23T18:13:04.564Z,14.84
2018-03-23T18:14:04.973Z,14.83
2018-03-23T18:15:05.444Z,14.82
2018-03-23T18:16:05.923Z,14.81
2018-03-23T18:17:06.453Z,14.79
2018-03-23T18:18:06.921Z,14.76
2018-03-23T18:19:07.339Z,14.76
2018-03-23T18:20:07.854Z,14.74
2018-03-23T18:21:08.294Z,14.73
2018-03-23T18:22:08.770Z,14.69
2018-03-23T18:24:09.721Z,14.67
2018-03-23T18:25:10.192Z,14.65
2018-03-23T18:26:10.661Z,14.62
2018-03-23T18:27:11.144Z,14.60
2018-03-23T18:28:11.616Z,14.61
2018-03-23T18:29:12.089Z,14.59
2018-03-23T18:30:12.559Z,14.58
2018-03-23T18:31:13.040Z,14.58
2018-03-23T18:32:13.513Z,14.55
2018-03-23T18:33:14.039Z,14.54
2018-03-23T18:34:14.464Z,14.55
2018-03-23T18:35:14.937Z,14.56
2018-03-23T18:36:15.409Z,14.56
2018-03-23T18:37:15.879Z,14.55
2018-03-23T18:38:28.346Z,14.54
2018-03-23T18:39:16.836Z,14.53
2018-03-23T18:40:17.308Z,14.52
2018-03-23T18:41:17.784Z,14.52
2018-03-23T18:42:18.257Z,14.52
2018-03-23T18:43:18.789Z,14.48
2018-03-23T18:44:19.201Z,14.45
2018-03-23T18:45:19.688Z,14.44
2018-03-23T18:46:20.155Z,14.46
2018-03-23T18:47:20.630Z,14.45
2018-03-23T18:48:21.148Z,14.47
2018-03-23T18:49:21.578Z,14.46
2018-03-23T18:50:22.054Z,14.46
2018-03-23T18:51:22.527Z,14.43
2018-03-23T18:52:23.000Z,14.43
2018-03-23T18:53:23.527Z,14.39
2018-03-23T18:54:23.948Z,14.40
2018-03-23T18:55:24.422Z,14.42
2018-03-23T18:56:24.896Z,14.40
2018-03-23T18:57:25.374Z,14.42
2018-03-23T18:59:26.317Z,14.41
2018-03-23T19:00:26.794Z,14.43
2018-03-23T19:01:27.269Z,14.42
2018-03-23T19:02:27.741Z,14.42
2018-03-23T19:03:28.218Z,14.42
2018-03-23T19:04:28.692Z,14.42
2018-03-23T19:05:29.167Z,14.41
2018-03-23T19:06:29.634Z,14.42
2018-03-23T19:07:30.151Z,14.42
2018-03-23T19:08:30.639Z,14.42
2018-03-23T19:09:31.063Z,14.39
2018-03-23T19:11:32.012Z,14.35
2018-03-23T19:12:32.484Z,14.33
2018-03-23T19:13:32.957Z,14.33
2018-03-23T19:14:33.433Z,14.32
2018-03-23T19:15:33.960Z,14.30
2018-03-23T19:16:34.382Z,14.28
2018-03-23T19:17:34.850Z,14.28
2018-03-23T19:18:35.378Z,14.27
2018-03-23T19:19:35.807Z,14.26
2018-03-23T19:20:36.278Z,14.24
2018-03-23T19:21:36.751Z,14.24
2018-03-23T19:22:37.225Z,14.24
2018-03-23T19:23:37.703Z,14.24
2018-03-23T19:24:38.168Z,14.21
2018-03-23T19:25:38.646Z,14.20
2018-03-23T19:26:39.126Z,14.18
2018-03-23T19:27:39.600Z,14.18
2018-03-23T19:28:40.176Z,14.17
2018-03-23T19:29:40.543Z,14.15
2018-03-23T19:30:41.018Z,14.14
2018-03-23T19:31:41.492Z,14.13
2018-03-23T19:32:41.964Z,14.11
2018-03-23T19:33:42.439Z,14.09
2018-03-23T19:34:42.915Z,14.09
2018-03-23T19:35:43.381Z,14.08
2018-03-23T19:36:43.862Z,14.06
2018-03-23T19:37:44.334Z,14.04
2018-03-23T19:38:44.809Z,14.03
2018-03-23T19:39:45.290Z,14.02
2018-03-23T19:40:45.758Z,14.02
2018-03-23T19:41:46.228Z,14.04
2018-03-23T19:42:46.702Z,14.02
2018-03-23T19:43:47.228Z,14.00
2018-03-23T19:44:47.650Z,13.96
2018-03-23T19:45:48.125Z,13.95
2018-03-23T19:46:48.594Z,13.92
2018-03-23T19:47:49.071Z,13.91
2018-03-23T19:48:49.604Z,13.89
2018-03-23T19:49:50.019Z,13.88
2018-03-23T19:50:50.490Z,13.86
2018-03-23T19:51:50.967Z,13.86
2018-03-23T19:52:51.441Z,13.84
2018-03-23T19:53:51.915Z,13.85
2018-03-23T19:55:52.864Z,13.84
2018-03-23T19:56:53.337Z,13.84
2018-03-23T19:57:53.808Z,13.82
2018-03-23T19:58:54.283Z,13.79
2018-03-23T19:59:54.758Z,13.78
2018-03-23T20:00:55.228Z,13.76
2018-03-23T20:01:55.698Z,13.75
2018-03-23T20:02:56.178Z,13.74
2018-03-23T20:03:56.649Z,13.71
2018-03-23T20:04:57.125Z,13.70
2018-03-23T20:05:57.600Z,13.68
2018-03-23T20:06:58.075Z,13.65
2018-03-23T20:08:59.020Z,13.61
2018-03-23T20:09:59.493Z,13.61
2018-03-23T20:12:00.438Z,13.60
2018-03-23T20:13:00.910Z,13.61
2018-03-23T20:14:01.435Z,13.59
2018-03-23T20:15:01.859Z,13.58
2018-03-23T20:16:02.333Z,13.57
2018-03-23T20:17:02.805Z,13.56
2018-03-23T20:18:03.278Z,13.54
2018-03-23T20:20:04.219Z,13.50
2018-03-23T20:21:04.701Z,13.46
2018-03-23T20:22:05.189Z,13.46
2018-03-23T20:24:06.121Z,13.45
2018-03-23T20:25:06.593Z,13.45
2018-03-23T20:26:07.064Z,13.42
2018-03-23T20:28:08.013Z,13.39
2018-03-23T20:29:08.536Z,13.41
2018-03-23T20:30:08.959Z,13.42
2018-03-23T20:31:09.426Z,13.39
2018-03-23T20:32:09.904Z,13.37
2018-03-23T20:33:10.378Z,13.37
2018-03-23T20:34:10.851Z,13.35
2018-03-23T20:35:11.323Z,13.35
2018-03-23T20:36:11.797Z,13.32
2018-03-23T20:37:12.268Z,13.33
2018-03-23T20:39:13.216Z,13.30
2018-03-23T20:40:13.699Z,13.30
2018-03-23T20:41:14.162Z,13.31
2018-03-23T20:42:14.630Z,13.29
2018-03-23T20:43:15.106Z,13.31
2018-03-23T20:44:15.633Z,13.29
2018-03-23T20:45:16.053Z,13.27
2018-03-23T20:46:16.528Z,13.27
2018-03-23T20:47:17.003Z,13.25
2018-03-23T20:48:17.471Z,13.26
2018-03-23T20:49:18.005Z,13.28
2018-03-23T20:50:18.419Z,13.26
2018-03-23T20:51:18.892Z,13.25
2018-03-23T20:52:19.364Z,13.25
2018-03-23T20:53:19.833Z,13.25
2018-03-23T20:54:20.312Z,13.26
2018-03-23T20:55:20.801Z,13.26
2018-03-23T20:56:21.257Z,13.25
2018-03-23T20:57:21.729Z,13.22
2018-03-23T20:58:22.202Z,13.23
2018-03-23T20:59:22.675Z,13.22
2018-03-23T21:00:23.144Z,13.22
2018-03-23T21:01:23.621Z,13.21
2018-03-23T21:03:24.567Z,13.20
2018-03-23T21:05:25.512Z,13.19
2018-03-23T21:06:25.986Z,13.18
2018-03-23T21:07:26.458Z,13.18
2018-03-23T21:08:26.930Z,13.20
2018-03-23T21:09:39.503Z,13.19
2018-03-23T21:10:27.877Z,13.20
2018-03-23T21:11:28.345Z,13.19